createdAt,value
2022-11-05T00:02:06.454Z,12
2022-11-05T00:07:09.426Z,11.8
2022-11-05T00:18:46.423Z,11.7
2022-11-05T00:35:34.400Z,11.7
2022-11-05T00:42:42.013Z,11.7
2022-11-05T00:47:14.514Z,11.6
2022-11-05T00:52:03.479Z,11.6
2022-11-05T00:57:07.017Z,11.6
2022-11-05T01:02:09.933Z,11.6
2022-11-05T01:07:12.655Z,11.6
2022-11-05T01:12:15.485Z,11.6
2022-11-05T01:17:19.201Z,11.5
2022-11-05T01:22:21.456Z,11.5
2022-11-05T01:27:23.465Z,11.5
2022-11-05T01:32:25.405Z,11.4
2022-11-05T01:37:27.448Z,11.4
2022-11-05T01:42:29.331Z,11.4
2022-11-05T01:47:31.270Z,11.4
2022-11-05T01:52:33.160Z,11.5
2022-11-05T01:57:35.207Z,11.5
2022-11-05T02:02:37.716Z,11.3
2022-11-05T02:07:39.924Z,11.3
2022-11-05T02:12:41.899Z,11.4
2022-11-05T02:17:43.958Z,11.3
2022-11-05T02:22:45.864Z,11.3
2022-11-05T02:32:48.520Z,11.2
2022-11-05T02:37:50.593Z,11.2
2022-11-05T02:42:52.449Z,11.2
2022-11-05T02:47:54.357Z,11.1
2022-11-05T02:52:56.317Z,11.2
2022-11-05T02:57:58.204Z,11.1
2022-11-05T03:03:00.466Z,11.1
2022-11-05T03:08:02.600Z,11.2
2022-11-05T03:13:04.642Z,11.1
2022-11-05T03:18:06.539Z,11
2022-11-05T03:23:09.392Z,10.8
2022-11-05T03:28:11.982Z,10.7
2022-11-05T03:33:16.226Z,10.4
2022-11-05T03:38:18.401Z,10.4
2022-11-05T03:43:20.339Z,10.3
2022-11-05T03:48:22.887Z,10.1
2022-11-05T03:53:24.986Z,10
2022-11-05T03:58:27.097Z,10
2022-11-05T04:03:29.142Z,9.9
2022-11-05T04:08:31.155Z,9.8
2022-11-05T04:13:33.205Z,9.8
2022-11-05T04:18:35.365Z,9.8
2022-11-05T04:23:37.391Z,9.7
2022-11-05T04:28:39.509Z,9.7
2022-11-05T04:33:41.964Z,9.6
2022-11-05T04:38:44.429Z,9.7
2022-11-05T04:43:46.537Z,9.7
2022-11-05T04:48:48.468Z,9.6
2022-11-05T04:53:50.499Z,9.6
2022-11-05T04:58:52.393Z,9.6
2022-11-05T05:03:54.382Z,9.5
2022-11-05T05:08:56.461Z,9.4
2022-11-05T05:13:58.568Z,9.4
2022-11-05T05:19:00.598Z,9.3
2022-11-05T05:24:02.699Z,9.3
2022-11-05T05:29:04.839Z,9.3
2022-11-05T05:34:07.160Z,9.3
2022-11-05T05:39:09.682Z,9.3
2022-11-05T05:44:11.678Z,9.3
2022-11-05T05:49:14.424Z,9.3
2022-11-05T05:54:16.395Z,9.2
2022-11-05T05:59:18.484Z,9.3
2022-11-05T06:04:20.419Z,9.3
2022-11-05T06:09:22.544Z,9.3
2022-11-05T06:14:24.561Z,9.3
2022-11-05T06:19:26.563Z,9.3
2022-11-05T06:24:28.525Z,9.3
2022-11-05T06:34:31.523Z,9.2
2022-11-05T06:39:33.509Z,9.3
2022-11-05T06:44:35.529Z,9.4
2022-11-05T06:49:37.471Z,9.4
2022-11-05T06:54:39.444Z,9.5
2022-11-05T06:59:41.461Z,9.4
2022-11-05T07:04:43.406Z,9.3
2022-11-05T07:09:45.449Z,9.3
2022-11-05T07:14:47.472Z,9.3
2022-11-05T07:19:51.274Z,9.3
2022-11-05T07:24:53.319Z,9.3
2022-11-05T07:29:55.518Z,9.3
2022-11-05T07:34:57.392Z,9.2
2022-11-05T07:39:59.368Z,9.2
2022-11-05T07:45:01.564Z,9.3
2022-11-05T07:50:03.972Z,9.2
2022-11-05T07:55:05.900Z,9.2
2022-11-05T08:00:08.108Z,9.3
2022-11-05T08:05:10.262Z,9.4
2022-11-05T08:10:12.426Z,9.5
2022-11-05T08:15:15.337Z,9.5
2022-11-05T08:20:17.449Z,9.5
2022-11-05T08:25:19.311Z,9.4
2022-11-05T08:30:21.799Z,9.5
2022-11-05T08:35:23.828Z,9.4
2022-11-05T08:40:26.154Z,9.5
2022-11-05T08:45:28.293Z,9.5
2022-11-05T08:50:30.412Z,9.6
2022-11-05T08:55:32.470Z,9.8
2022-11-05T09:00:34.380Z,9.8
2022-11-05T09:05:36.320Z,9.9
2022-11-05T09:10:38.382Z,10.1
2022-11-05T09:15:40.416Z,10.1
2022-11-05T09:20:42.650Z,10.2
2022-11-05T09:25:44.678Z,10.1
2022-11-05T09:30:47.089Z,10.2
2022-11-05T09:35:49.048Z,10.2
2022-11-05T09:40:51.054Z,10.3
2022-11-05T09:45:53.176Z,10.3
2022-11-05T09:50:55.226Z,10.5
2022-11-05T09:55:57.249Z,10.5
2022-11-05T10:00:59.302Z,10.5
2022-11-05T10:06:01.621Z,10.7
2022-11-05T10:11:04.030Z,10.8
2022-11-05T10:16:06.306Z,10.9
2022-11-05T10:21:08.299Z,10.9
2022-11-05T10:26:10.295Z,11
2022-11-05T10:31:12.374Z,10.9
2022-11-05T10:36:14.298Z,11
2022-11-05T10:41:16.297Z,11.1
2022-11-05T10:46:18.236Z,11.4
2022-11-05T10:51:23.879Z,12.1
2022-11-05T10:56:25.849Z,12.1
2022-11-05T11:01:28.670Z,12
2022-11-05T11:06:31.048Z,12
2022-11-05T11:11:32.989Z,11.9
2022-11-05T11:16:34.927Z,11.8
2022-11-05T11:21:37.175Z,11.8
2022-11-05T11:26:39.142Z,11.9
2022-11-05T11:31:41.368Z,11.9
2022-11-05T11:36:44.039Z,12
2022-11-05T11:41:45.998Z,12
2022-11-05T11:46:48.014Z,12
2022-11-05T11:51:52.336Z,12.3
2022-11-05T11:56:54.519Z,12.2
2022-11-05T12:01:57.165Z,12.2
2022-11-05T12:06:59.464Z,12.2
2022-11-05T12:12:01.637Z,12.2
2022-11-05T12:17:04.112Z,12.6
2022-11-05T12:22:06.595Z,12.6
2022-11-05T12:27:08.564Z,12.4
2022-11-05T12:32:10.844Z,12.6
2022-11-05T12:37:13.537Z,12.9
2022-11-05T12:42:16.184Z,12.5
2022-11-05T12:47:18.389Z,12.5
2022-11-05T12:52:21.061Z,12.5
2022-11-05T12:57:23.213Z,12.5
2022-11-05T13:02:26.076Z,12.3
2022-11-05T13:07:28.178Z,12.3
2022-11-05T13:12:30.374Z,12.3
2022-11-05T13:17:33.735Z,12.2
2022-11-05T13:22:36.258Z,12.1
2022-11-05T13:27:39.029Z,12.2
2022-11-05T13:32:42.026Z,12
2022-11-05T13:37:44.665Z,11.9
2022-11-05T13:42:47.474Z,12
2022-11-05T13:47:49.911Z,11.9
2022-11-05T13:52:52.049Z,11.9
2022-11-05T13:57:54.191Z,11.7
2022-11-05T14:02:56.205Z,11.7
2022-11-05T14:08:05.352Z,11.9
2022-11-05T14:13:07.255Z,11.8
2022-11-05T14:18:12.283Z,11.9
2022-11-05T14:23:16.724Z,11.7
2022-11-05T14:28:18.769Z,11.7
2022-11-05T14:33:21.136Z,11.6
2022-11-05T14:38:23.605Z,11.6
2022-11-05T14:43:25.530Z,11.6
2022-11-05T14:48:27.389Z,11.5
2022-11-05T14:53:29.297Z,11.5
2022-11-05T14:58:31.212Z,11.4
2022-11-05T15:03:33.335Z,11.4
2022-11-05T15:08:35.667Z,11.4
2022-11-05T15:13:37.709Z,11.4
2022-11-05T15:18:39.671Z,11.3
2022-11-05T15:23:42.164Z,11.3
2022-11-05T15:28:44.156Z,11.2
2022-11-05T15:33:46.593Z,11.1
2022-11-05T15:39:30.262Z,11.1
2022-11-05T15:43:52.420Z,11.1
2022-11-05T15:48:54.430Z,11.1
2022-11-05T15:54:32.589Z,11.1
2022-11-05T15:59:05.416Z,11.1
2022-11-05T16:04:12.602Z,11.1
2022-11-05T16:09:14.568Z,11.1
2022-11-05T16:14:16.491Z,11
2022-11-05T16:19:18.397Z,10.9
2022-11-05T16:24:23.032Z,10.7
2022-11-05T16:29:20.502Z,10.7
2022-11-05T16:34:22.501Z,10.7
2022-11-05T16:39:24.921Z,10.7
2022-11-05T16:44:26.851Z,10.6
2022-11-05T16:49:29.035Z,10.7
2022-11-05T16:54:31.012Z,10.7
2022-11-05T16:59:33.037Z,10.6
2022-11-05T17:04:34.997Z,10.6
2022-11-05T17:09:36.893Z,10.7
2022-11-05T17:14:38.877Z,10.7
2022-11-05T17:19:40.953Z,10.7
2022-11-05T17:24:43.063Z,10.8
2022-11-05T17:29:44.955Z,10.8
2022-11-05T17:34:47.192Z,10.8
2022-11-05T17:39:49.199Z,10.9
2022-11-05T17:44:51.303Z,10.9
2022-11-05T17:49:53.626Z,11
2022-11-05T17:54:55.535Z,11
2022-11-05T17:59:57.952Z,10.8
2022-11-05T18:04:59.886Z,10.8
2022-11-05T18:10:01.987Z,10.9
2022-11-05T18:15:03.954Z,10.8
2022-11-05T18:20:06.016Z,10.8
2022-11-05T18:25:09.251Z,10.9
2022-11-05T18:30:11.229Z,10.9
2022-11-05T18:35:13.689Z,10.8
2022-11-05T18:40:16.268Z,10.8
2022-11-05T18:45:23.311Z,10.8
2022-11-05T18:50:21.117Z,10.7
2022-11-05T18:55:22.968Z,10.7
2022-11-05T19:00:24.916Z,10.7
2022-11-05T19:05:31.725Z,10.6
2022-11-05T19:10:33.662Z,10.6
2022-11-05T19:15:35.766Z,10.6
2022-11-05T19:20:40.072Z,10.5
2022-11-05T19:25:42.170Z,10.5
2022-11-05T19:30:44.111Z,10.5
2022-11-05T19:35:46.475Z,10.3
2022-11-05T19:40:48.944Z,10.3
2022-11-05T19:45:50.887Z,10.3
2022-11-05T19:50:52.865Z,10.2
2022-11-05T19:55:54.749Z,10.2
2022-11-05T20:00:56.774Z,10.5
2022-11-05T20:05:58.679Z,10.4
2022-11-05T20:11:00.791Z,10.2
2022-11-05T20:16:02.786Z,10.2
2022-11-05T20:21:04.818Z,10.2
2022-11-05T20:26:07.035Z,10.1
2022-11-05T20:31:09.266Z,10.1
2022-11-05T20:36:11.377Z,10.1
2022-11-05T20:41:13.347Z,10.1
2022-11-05T20:46:15.617Z,10.1
2022-11-05T20:51:18.377Z,10.1
2022-11-05T20:56:20.303Z,10.1
2022-11-05T21:01:22.878Z,10.1
2022-11-05T21:06:25.381Z,10.1
2022-11-05T21:11:27.468Z,10.2
2022-11-05T21:16:29.417Z,10.2
2022-11-05T21:21:31.530Z,10.2
2022-11-05T21:26:35.994Z,10.2
2022-11-05T21:31:37.963Z,10.2
2022-11-05T21:36:40.035Z,10.2
2022-11-05T21:41:42.136Z,10.3
2022-11-05T21:46:44.059Z,10.3
2022-11-05T21:51:46.010Z,10.3
2022-11-05T21:56:48.057Z,10.4
2022-11-05T22:01:50.592Z,10.4
2022-11-05T22:06:52.894Z,10.4
2022-11-05T22:11:54.936Z,10.5
2022-11-05T22:16:56.984Z,10.7
2022-11-05T22:21:58.937Z,10.7
2022-11-05T22:27:01.130Z,10.7
2022-11-05T22:32:03.160Z,10.7
2022-11-05T22:37:05.242Z,10.7
2022-11-05T22:42:10.615Z,10.7
2022-11-05T22:47:12.645Z,10.7
2022-11-05T22:52:14.737Z,10.7
2022-11-05T22:57:16.724Z,10.7
2022-11-05T23:02:19.208Z,10.7
2022-11-05T23:07:29.116Z,10.7
2022-11-05T23:12:31.083Z,10.7
2022-11-05T23:17:33.245Z,10.7
2022-11-05T23:22:35.206Z,10.7
2022-11-05T23:27:37.146Z,10.7
2022-11-05T23:32:38.992Z,10.6
2022-11-05T23:37:41.039Z,10.7
2022-11-05T23:42:42.896Z,10.6
2022-11-05T23:47:44.808Z,10.6
2022-11-05T23:52:46.780Z,10.6
2022-11-05T23:57:48.680Z,10.6
